createdAt,value
2019-03-29T09:08:47.037Z,12372.00
2019-03-29T09:09:47.013Z,11356.00
2019-03-29T09:10:47.002Z,11792.00
2019-03-29T09:11:46.991Z,12592.00
2019-03-29T09:12:46.991Z,12340.00
2019-03-29T09:13:46.968Z,13192.00
2019-03-29T09:14:46.960Z,14320.00
2019-03-29T09:15:46.947Z,14096.00
2019-03-29T09:16:47.050Z,13532.00
2019-03-29T09:17:46.940Z,12472.00
2019-03-29T09:18:46.916Z,12140.00
2019-03-29T09:19:46.902Z,11664.00
2019-03-29T09:20:46.891Z,11608.00
2019-03-29T09:21:46.885Z,10804.00
2019-03-29T09:22:46.877Z,9904.00
2019-03-29T09:23:46.866Z,9648.00
2019-03-29T09:24:46.846Z,9612.00
2019-03-29T09:25:46.837Z,9560.00
2019-03-29T09:26:46.826Z,9576.00
2019-03-29T09:27:46.813Z,9580.00
2019-03-29T09:28:46.811Z,9568.00
2019-03-29T09:29:46.792Z,9564.00
2019-03-29T09:30:46.780Z,9560.00
2019-03-29T09:31:46.775Z,9548.00
2019-03-29T09:32:46.807Z,9548.00
2019-03-29T09:33:46.758Z,9600.00
2019-03-29T09:34:46.736Z,9720.00
2019-03-29T09:35:46.728Z,9820.00
2019-03-29T09:36:46.718Z,9920.00
2019-03-29T09:37:46.702Z,10024.00
2019-03-29T09:38:46.702Z,10076.00
2019-03-29T09:39:46.681Z,10096.00
2019-03-29T09:40:57.799Z,10100.00
2019-03-29T09:41:47.658Z,10008.00
2019-03-29T09:42:46.648Z,9968.00
2019-03-29T09:43:46.650Z,10140.00
2019-03-29T09:44:46.627Z,10304.00
2019-03-29T09:45:46.613Z,10356.00
2019-03-29T09:46:46.604Z,10384.00
2019-03-29T09:47:46.591Z,10400.00
2019-03-29T09:48:46.590Z,10484.00
2019-03-29T09:49:46.569Z,10664.00
2019-03-29T09:50:50.399Z,10712.00
2019-03-29T09:51:46.546Z,11008.00
2019-03-29T09:52:46.538Z,11220.00
2019-03-29T09:53:46.535Z,11196.00
2019-03-29T09:54:46.522Z,40832.00
2019-03-29T09:55:46.502Z,57184.00
2019-03-29T09:56:48.307Z,59776.00
2019-03-29T09:57:46.482Z,58112.00
2019-03-29T09:58:46.479Z,62304.00
2019-03-29T09:59:46.458Z,65408.00
2019-03-29T10:00:46.448Z,67904.00
2019-03-29T10:01:46.436Z,44096.00
2019-03-29T10:02:46.426Z,15392.00
2019-03-29T10:03:46.422Z,24544.00
2019-03-29T10:04:46.404Z,54624.00
2019-03-29T10:05:46.392Z,66752.00
2019-03-29T10:06:46.382Z,70560.00
2019-03-29T10:07:46.371Z,62144.00
2019-03-29T10:08:46.368Z,28576.00
2019-03-29T10:09:46.350Z,11924.00
2019-03-29T10:10:46.343Z,11444.00
2019-03-29T10:11:46.327Z,11192.00
2019-03-29T10:12:46.345Z,11056.00
2019-03-29T10:13:46.320Z,10912.00
2019-03-29T10:14:46.294Z,10804.00
2019-03-29T10:15:46.286Z,10820.00
2019-03-29T10:16:46.275Z,10824.00
2019-03-29T10:17:46.263Z,10800.00
2019-03-29T10:18:46.251Z,10936.00
2019-03-29T10:19:49.621Z,11136.00
2019-03-29T10:20:46.232Z,11584.00
2019-03-29T10:21:46.220Z,29056.00
2019-03-29T10:22:46.207Z,63904.00
2019-03-29T10:23:46.203Z,70880.00
2019-03-29T10:24:46.207Z,68416.00
2019-03-29T10:25:46.175Z,49888.00
2019-03-29T10:26:46.164Z,17536.00
2019-03-29T10:27:46.158Z,11300.00
2019-03-29T10:28:46.148Z,15232.00
2019-03-29T10:29:46.143Z,16640.00
2019-03-29T10:30:46.990Z,10940.00
2019-03-29T10:31:46.122Z,10772.00
2019-03-29T10:32:46.101Z,10796.00
2019-03-29T10:33:48.822Z,10808.00
2019-03-29T10:34:46.086Z,10868.00
2019-03-29T10:35:51.908Z,10916.00
2019-03-29T10:36:47.058Z,11144.00
2019-03-29T10:37:46.046Z,11340.00
2019-03-29T10:38:46.035Z,11480.00
2019-03-29T10:39:46.033Z,11484.00
2019-03-29T10:40:46.091Z,11592.00
2019-03-29T10:41:46.004Z,11616.00
2019-03-29T10:42:56.974Z,11692.00
2019-03-29T10:43:46.981Z,11748.00
2019-03-29T10:44:49.210Z,11724.00
2019-03-29T10:45:45.962Z,11888.00
2019-03-29T10:46:45.951Z,11952.00
2019-03-29T10:47:45.941Z,12156.00
2019-03-29T10:48:45.928Z,12172.00
2019-03-29T10:49:45.929Z,11760.00
2019-03-29T10:50:45.906Z,11812.00
2019-03-29T10:51:45.899Z,12928.00
2019-03-29T10:52:45.886Z,35552.00
2019-03-29T10:53:45.874Z,62816.00
2019-03-29T10:54:45.871Z,72256.00
2019-03-29T10:55:45.855Z,74848.00
2019-03-29T10:56:45.842Z,77312.00
2019-03-29T10:57:45.831Z,76416.00
2019-03-29T10:58:45.821Z,75936.00
2019-03-29T10:59:45.817Z,80704.00
2019-03-29T11:00:45.801Z,81088.00
2019-03-29T11:01:45.788Z,78752.00
2019-03-29T11:02:45.778Z,73920.00
2019-03-29T11:03:45.766Z,74112.00
2019-03-29T11:04:45.768Z,77792.00
2019-03-29T11:05:45.746Z,79168.00
2019-03-29T11:06:45.736Z,76800.00
2019-03-29T11:07:45.724Z,77088.00
2019-03-29T11:08:45.716Z,75520.00
2019-03-29T11:09:45.713Z,75904.00
2019-03-29T11:10:45.695Z,73632.00
2019-03-29T11:11:45.687Z,74688.00
2019-03-29T11:12:45.671Z,75808.00
2019-03-29T11:13:45.662Z,75552.00
2019-03-29T11:14:45.664Z,71552.00
2019-03-29T11:15:45.638Z,68640.00
2019-03-29T11:16:45.632Z,72128.00
2019-03-29T11:17:45.618Z,75584.00
2019-03-29T11:18:45.986Z,76576.00
2019-03-29T11:19:45.610Z,68352.00
2019-03-29T11:20:45.587Z,63616.00
2019-03-29T11:21:45.581Z,67616.00
2019-03-29T11:22:45.566Z,77184.00
2019-03-29T11:23:45.557Z,79360.00
2019-03-29T11:24:45.555Z,76672.00
2019-03-29T11:25:48.449Z,72768.00
2019-03-29T11:26:45.525Z,73216.00
2019-03-29T11:27:45.519Z,74048.00
2019-03-29T11:28:45.508Z,74848.00
2019-03-29T11:29:45.510Z,75584.00
2019-03-29T11:30:45.493Z,81696.00
2019-03-29T11:31:45.478Z,82720.00
2019-03-29T11:32:45.462Z,78240.00
2019-03-29T11:33:45.452Z,77408.00
2019-03-29T11:34:45.455Z,76384.00
2019-03-29T11:35:45.507Z,77472.00
2019-03-29T11:36:45.421Z,77888.00
2019-03-29T11:37:45.412Z,71072.00
2019-03-29T11:38:45.403Z,56064.00
2019-03-29T11:39:45.399Z,46400.00
2019-03-29T11:40:45.381Z,52640.00
2019-03-29T11:41:45.372Z,72608.00
2019-03-29T11:42:45.360Z,85312.00
2019-03-29T11:43:45.350Z,95264.00
2019-03-29T11:44:45.351Z,82336.00
2019-03-29T11:45:45.331Z,75968.00
2019-03-29T11:46:45.322Z,72256.00
2019-03-29T11:47:45.310Z,73408.00
2019-03-29T11:48:45.302Z,73760.00
2019-03-29T11:49:45.299Z,72800.00
2019-03-29T11:50:45.282Z,70816.00
2019-03-29T11:51:45.268Z,69536.00
2019-03-29T11:52:45.259Z,69696.00
2019-03-29T11:53:45.249Z,73728.00
2019-03-29T11:54:45.254Z,75520.00
2019-03-29T11:55:45.228Z,74304.00
2019-03-29T11:56:47.664Z,72608.00
2019-03-29T11:57:45.210Z,72256.00
2019-03-29T11:58:45.199Z,73280.00
2019-03-29T11:59:45.189Z,74528.00
2019-03-29T12:00:45.187Z,76128.00
2019-03-29T12:01:45.170Z,74176.00
2019-03-29T12:02:45.158Z,73152.00
2019-03-29T12:03:45.151Z,71104.00
2019-03-29T12:04:45.139Z,71584.00
2019-03-29T12:05:45.137Z,72000.00
2019-03-29T12:06:45.119Z,73088.00
2019-03-29T12:07:45.110Z,71808.00
2019-03-29T12:08:45.100Z,68256.00
2019-03-29T12:09:45.114Z,64224.00
2019-03-29T12:10:45.088Z,67264.00
2019-03-29T12:11:45.070Z,68768.00
2019-03-29T12:12:45.060Z,68448.00
2019-03-29T12:13:45.049Z,61792.00
2019-03-29T12:14:45.040Z,63840.00
2019-03-29T12:15:45.037Z,72160.00
2019-03-29T12:16:45.021Z,74304.00
2019-03-29T12:17:45.011Z,70848.00
2019-03-29T12:18:44.999Z,68608.00
2019-03-29T12:19:44.989Z,74656.00
2019-03-29T12:20:44.997Z,76512.00
2019-03-29T12:21:44.970Z,77888.00
2019-03-29T12:22:44.961Z,76416.00
2019-03-29T12:23:44.951Z,75968.00
2019-03-29T12:24:44.941Z,76000.00
2019-03-29T12:25:44.940Z,67072.00
2019-03-29T12:26:44.919Z,70048.00
2019-03-29T12:27:44.908Z,68416.00
2019-03-29T12:28:44.901Z,71488.00
2019-03-29T12:29:44.889Z,71488.00
2019-03-29T12:30:44.889Z,69632.00
2019-03-29T12:31:44.870Z,74304.00
2019-03-29T12:32:44.859Z,69088.00
2019-03-29T12:33:44.852Z,63008.00
2019-03-29T12:34:44.839Z,71872.00
2019-03-29T12:35:44.839Z,64192.00
2019-03-29T12:36:46.104Z,66432.00
2019-03-29T12:37:44.808Z,75392.00
2019-03-29T12:38:44.798Z,44288.00
2019-03-29T12:39:44.790Z,70496.00
2019-03-29T12:40:45.273Z,77152.00
2019-03-29T12:41:44.767Z,77248.00
2019-03-29T12:42:44.759Z,69440.00
2019-03-29T12:43:54.950Z,67328.00
2019-03-29T12:44:45.739Z,69824.00
2019-03-29T12:45:44.734Z,72032.00
2019-03-29T12:46:44.718Z,70112.00
2019-03-29T12:47:44.708Z,55552.00
2019-03-29T12:48:44.698Z,53344.00
2019-03-29T12:49:44.687Z,49888.00
2019-03-29T12:50:44.693Z,59488.00
2019-03-29T12:51:46.641Z,64064.00
2019-03-29T12:52:44.668Z,28096.00
2019-03-29T12:53:44.647Z,12656.00
2019-03-29T12:54:44.962Z,7740.00
2019-03-29T12:55:44.654Z,10272.00
2019-03-29T12:56:44.628Z,13424.00
2019-03-29T12:57:44.606Z,38624.00
2019-03-29T12:58:44.593Z,40640.00
2019-03-29T12:59:44.585Z,12980.00
2019-03-29T13:00:44.575Z,25024.00
2019-03-29T13:01:44.575Z,11168.00
2019-03-29T13:02:44.570Z,10760.00
2019-03-29T13:03:44.541Z,10352.00
2019-03-29T13:04:47.064Z,10112.00
2019-03-29T13:05:44.610Z,9864.00
2019-03-29T13:06:44.519Z,9740.00
2019-03-29T13:07:44.503Z,9536.00
2019-03-29T13:08:44.512Z,9284.00
2019-03-29T13:09:44.479Z,8920.00
2019-03-29T13:10:44.472Z,8724.00
2019-03-29T13:11:44.468Z,8368.00
2019-03-29T13:12:44.452Z,7960.00
2019-03-29T13:13:44.438Z,7556.00
2019-03-29T13:14:44.428Z,7100.00
2019-03-29T13:15:44.417Z,6768.00
2019-03-29T13:16:44.412Z,6636.00
2019-03-29T13:17:44.401Z,6512.00
2019-03-29T13:18:44.382Z,6496.00
2019-03-29T13:19:44.376Z,6604.00
2019-03-29T13:20:44.363Z,6692.00
2019-03-29T13:21:44.360Z,6900.00
2019-03-29T13:22:44.349Z,7104.00
2019-03-29T13:23:44.330Z,7332.00
2019-03-29T13:24:44.318Z,7328.00
2019-03-29T13:25:44.307Z,7296.00
2019-03-29T13:26:44.306Z,7372.00
2019-03-29T13:27:44.375Z,7548.00
2019-03-29T13:28:44.277Z,7552.00
2019-03-29T13:29:44.272Z,7492.00
2019-03-29T13:30:44.252Z,7428.00
2019-03-29T13:31:44.253Z,7672.00
2019-03-29T13:32:44.233Z,8072.00
2019-03-29T13:33:44.224Z,8664.00
2019-03-29T13:34:44.209Z,8872.00
2019-03-29T13:35:44.663Z,7500.00
2019-03-29T13:36:44.204Z,8180.00
2019-03-29T13:37:44.177Z,7924.00
2019-03-29T13:38:44.166Z,6372.00
2019-03-29T13:39:44.159Z,7048.00
2019-03-29T13:40:44.188Z,7700.00
2019-03-29T13:41:44.134Z,7192.00
2019-03-29T13:42:44.123Z,5852.00
2019-03-29T13:43:44.115Z,6228.00
2019-03-29T13:44:44.202Z,7020.00
2019-03-29T13:45:44.089Z,6236.00
2019-03-29T13:46:44.091Z,6152.00
2019-03-29T13:47:44.119Z,5896.00
2019-03-29T13:48:44.059Z,5868.00
2019-03-29T13:49:44.047Z,6020.00
2019-03-29T13:50:44.034Z,6392.00
2019-03-29T13:51:44.035Z,6596.00
2019-03-29T13:52:44.013Z,6156.00
2019-03-29T13:53:44.006Z,5744.00
2019-03-29T13:54:43.993Z,5524.00
2019-03-29T13:55:43.980Z,5356.00
2019-03-29T13:56:43.981Z,5244.00
2019-03-29T13:57:43.997Z,5164.00
2019-03-29T13:58:43.947Z,5036.00
2019-03-29T13:59:43.941Z,4944.00
2019-03-29T14:00:43.925Z,4872.00
2019-03-29T14:01:43.925Z,4752.00
2019-03-29T14:02:43.900Z,4664.00
2019-03-29T14:03:43.890Z,4584.00
2019-03-29T14:04:43.883Z,4512.00
2019-03-29T14:05:43.868Z,4452.00
2019-03-29T14:06:43.867Z,4432.00
2019-03-29T14:07:43.851Z,4556.00
2019-03-29T14:08:43.834Z,4408.00
2019-03-29T14:09:43.824Z,4428.00
2019-03-29T14:10:43.816Z,4412.00
2019-03-29T14:11:43.812Z,4428.00
2019-03-29T14:12:43.791Z,4436.00
2019-03-29T14:13:43.780Z,4416.00
2019-03-29T14:14:43.776Z,4396.00
2019-03-29T14:15:43.762Z,4356.00
2019-03-29T14:16:43.760Z,4300.00
2019-03-29T14:17:43.737Z,4220.00
2019-03-29T14:18:43.727Z,4196.00
2019-03-29T14:19:43.715Z,4156.00
2019-03-29T14:20:43.710Z,4140.00
2019-03-29T14:21:43.710Z,4072.00
2019-03-29T14:22:43.683Z,4000.00
2019-03-29T14:23:43.674Z,3972.00
2019-03-29T14:24:43.665Z,3904.00
2019-03-29T14:25:43.650Z,3928.00
2019-03-29T14:26:43.651Z,3912.00
2019-03-29T14:27:43.627Z,3952.00
2019-03-29T14:28:43.619Z,3908.00
2019-03-29T14:29:43.609Z,3848.00
2019-03-29T14:30:43.600Z,3796.00
2019-03-29T14:31:43.594Z,3772.00
2019-03-29T14:32:43.574Z,3664.00
2019-03-29T14:33:43.562Z,3624.00
2019-03-29T14:34:43.553Z,3600.00
2019-03-29T14:35:43.539Z,3548.00
2019-03-29T14:36:43.539Z,3508.00
2019-03-29T14:37:43.517Z,3508.00
2019-03-29T14:38:43.509Z,3456.00
2019-03-29T14:39:43.496Z,3408.00
2019-03-29T14:40:43.483Z,3412.00
2019-03-29T14:41:43.498Z,3408.00
2019-03-29T14:42:43.468Z,3400.00
2019-03-29T14:43:43.450Z,3380.00
2019-03-29T14:44:52.179Z,3368.00
2019-03-29T14:45:44.518Z,3340.00
2019-03-29T14:46:43.427Z,3312.00
2019-03-29T14:47:44.024Z,3292.00
2019-03-29T14:48:43.396Z,3248.00
2019-03-29T14:49:43.388Z,3204.00
2019-03-29T14:50:43.373Z,3160.00
2019-03-29T14:51:43.376Z,3144.00
2019-03-29T14:52:43.357Z,3140.00
2019-03-29T14:53:43.340Z,3284.00
2019-03-29T14:54:43.363Z,3756.00
2019-03-29T14:55:43.328Z,4328.00
2019-03-29T14:56:43.316Z,4804.00
2019-03-29T14:57:43.295Z,5900.00
2019-03-29T14:58:43.343Z,18464.00
2019-03-29T14:59:43.277Z,29920.00
2019-03-29T15:00:43.269Z,27616.00
2019-03-29T15:01:43.270Z,25344.00
2019-03-29T15:02:43.240Z,27904.00
2019-03-29T15:03:43.230Z,27840.00
2019-03-29T15:04:43.225Z,26016.00
2019-03-29T15:05:43.209Z,16992.00
2019-03-29T15:06:43.208Z,19808.00
2019-03-29T15:07:43.194Z,32544.00
2019-03-29T15:08:43.175Z,29056.00
2019-03-29T15:09:43.168Z,21984.00
2019-03-29T15:10:45.733Z,20704.00
2019-03-29T15:11:43.152Z,22592.00
2019-03-29T15:12:43.130Z,15872.00
2019-03-29T15:13:43.118Z,6720.00
2019-03-29T15:14:43.127Z,3364.00
2019-03-29T15:15:43.098Z,2844.00
2019-03-29T15:16:43.156Z,2544.00
2019-03-29T15:17:43.083Z,2440.00
2019-03-29T15:18:43.065Z,2416.00
2019-03-29T15:19:43.055Z,2408.00
2019-03-29T15:20:53.346Z,2404.00
2019-03-29T15:21:44.042Z,2372.00
2019-03-29T15:22:43.061Z,2340.00
2019-03-29T15:23:43.011Z,2320.00
2019-03-29T15:24:42.997Z,2292.00
2019-03-29T15:25:42.988Z,2268.00
2019-03-29T15:26:42.986Z,2244.00
2019-03-29T15:27:42.965Z,2228.00
2019-03-29T15:28:42.969Z,2212.00
2019-03-29T15:29:42.943Z,2188.00
2019-03-29T15:30:42.931Z,2168.00
2019-03-29T15:31:42.930Z,2148.00
2019-03-29T15:32:42.977Z,2128.00
2019-03-29T15:33:42.898Z,2112.00
2019-03-29T15:34:42.890Z,2092.00
2019-03-29T15:35:42.875Z,2072.00
2019-03-29T15:36:42.911Z,2060.00
2019-03-29T15:37:42.861Z,2036.00
2019-03-29T15:38:42.847Z,2016.00
2019-03-29T15:39:42.833Z,1988.00
2019-03-29T15:40:42.823Z,1956.00
2019-03-29T15:41:42.812Z,1940.00
2019-03-29T15:42:42.813Z,1924.00
2019-03-29T15:43:42.792Z,1912.00
2019-03-29T15:44:42.791Z,1896.00
2019-03-29T15:45:42.773Z,1876.00
2019-03-29T15:46:42.755Z,1864.00
2019-03-29T15:47:42.760Z,1844.00
2019-03-29T15:48:42.733Z,1844.00
2019-03-29T15:49:55.357Z,1836.00
2019-03-29T15:50:43.711Z,1824.00
2019-03-29T15:51:42.711Z,1800.00
2019-03-29T15:52:42.696Z,1768.00
2019-03-29T15:53:42.676Z,1752.00
2019-03-29T15:54:42.668Z,1748.00
2019-03-29T15:55:42.656Z,1736.00
2019-03-29T15:56:42.643Z,1732.00
2019-03-29T15:57:42.643Z,1728.00
2019-03-29T15:58:42.620Z,1720.00
2019-03-29T15:59:42.614Z,1708.00
2019-03-29T16:00:42.602Z,1700.00
2019-03-29T16:01:42.587Z,1688.00
2019-03-29T16:02:42.584Z,1672.00
2019-03-29T16:03:42.564Z,1660.00
2019-03-29T16:04:42.562Z,1648.00
2019-03-29T16:05:42.540Z,1632.00
2019-03-29T16:06:42.530Z,1616.00
2019-03-29T16:07:42.535Z,1604.00
2019-03-29T16:08:42.512Z,1588.00
2019-03-29T16:09:42.500Z,1576.00
2019-03-29T16:10:42.484Z,1568.00
2019-03-29T16:11:42.474Z,1556.00
2019-03-29T16:12:42.469Z,1544.00
2019-03-29T16:13:42.449Z,1540.00
2019-03-29T16:14:42.438Z,1528.00
2019-03-29T16:15:42.432Z,1520.00
2019-03-29T16:16:42.417Z,1512.00
2019-03-29T16:17:42.413Z,1508.00
2019-03-29T16:18:42.393Z,1500.00
2019-03-29T16:19:42.380Z,1492.00
2019-03-29T16:20:42.376Z,1488.00
2019-03-29T16:21:42.356Z,1484.00
2019-03-29T16:22:42.368Z,1480.00
2019-03-29T16:23:42.334Z,1472.00
2019-03-29T16:24:42.324Z,1464.00
2019-03-29T16:25:42.314Z,1452.00
2019-03-29T16:26:42.299Z,1436.00
2019-03-29T16:27:42.289Z,1428.00
2019-03-29T16:28:42.288Z,1416.00
2019-03-29T16:29:42.265Z,1400.00
2019-03-29T16:30:42.254Z,1388.00
2019-03-29T16:31:42.251Z,1384.00
2019-03-29T16:32:42.230Z,1372.00
2019-03-29T16:33:42.230Z,1364.00
2019-03-29T16:34:42.209Z,1364.00
2019-03-29T16:35:42.196Z,1356.00
2019-03-29T16:36:42.194Z,1344.00
2019-03-29T16:37:42.174Z,1332.00
2019-03-29T16:38:42.170Z,1320.00
2019-03-29T16:39:42.153Z,1308.00
2019-03-29T16:40:42.140Z,1292.00
2019-03-29T16:41:42.132Z,1280.00
2019-03-29T16:42:42.118Z,1260.00
2019-03-29T16:43:42.115Z,1252.00
2019-03-29T16:44:42.171Z,1236.00
2019-03-29T16:45:48.191Z,1224.00
2019-03-29T16:46:43.071Z,1212.00
2019-03-29T16:47:42.068Z,1200.00
2019-03-29T16:48:42.061Z,1188.00
2019-03-29T16:49:42.045Z,1176.00
2019-03-29T16:50:42.030Z,1164.00
2019-03-29T16:51:42.017Z,1152.00
2019-03-29T16:52:42.007Z,1140.00
2019-03-29T16:53:42.001Z,1124.00
2019-03-29T16:54:41.983Z,1108.00
2019-03-29T16:55:41.971Z,1100.00
2019-03-29T16:56:41.966Z,1088.00
2019-03-29T16:57:41.956Z,1076.00
2019-03-29T16:58:41.946Z,1060.00
2019-03-29T16:59:41.926Z,1052.00
2019-03-29T17:00:41.917Z,1040.00
2019-03-29T17:01:41.903Z,1028.00
2019-03-29T17:02:41.899Z,1012.00
2019-03-29T17:03:41.896Z,1000.00
2019-03-29T17:04:41.870Z,984.00
2019-03-29T17:05:42.185Z,972.00
2019-03-29T17:06:41.848Z,956.00
2019-03-29T17:07:41.839Z,940.00
2019-03-29T17:08:41.826Z,928.00
2019-03-29T17:09:41.824Z,912.00
2019-03-29T17:10:41.818Z,896.00
2019-03-29T17:11:41.799Z,884.00
2019-03-29T17:12:41.783Z,868.00
2019-03-29T17:13:41.775Z,852.00
2019-03-29T17:14:41.771Z,840.00
2019-03-29T17:15:41.749Z,824.00
2019-03-29T17:16:41.743Z,808.00
2019-03-29T17:17:41.759Z,792.00
2019-03-29T17:18:41.721Z,776.00
2019-03-29T17:19:41.716Z,708.00
2019-03-29T17:20:41.695Z,696.00
2019-03-29T17:21:41.683Z,716.00
2019-03-29T17:22:43.534Z,700.00
2019-03-29T17:23:41.664Z,684.00
2019-03-29T17:24:56.056Z,668.00
2019-03-29T17:25:42.642Z,652.00
2019-03-29T17:26:41.630Z,636.00
2019-03-29T17:27:41.627Z,616.00
2019-03-29T17:28:41.608Z,600.00
2019-03-29T17:29:41.606Z,584.00
2019-03-29T17:30:41.602Z,568.00
2019-03-29T17:31:41.576Z,548.00
2019-03-29T17:32:41.565Z,528.00
2019-03-29T17:33:41.552Z,508.00
2019-03-29T17:34:41.550Z,492.00
2019-03-29T17:35:41.528Z,432.00
2019-03-29T17:36:41.518Z,552.00
2019-03-29T17:37:41.523Z,528.00
2019-03-29T17:38:41.497Z,508.00
2019-03-29T17:39:41.499Z,488.00
2019-03-29T17:40:41.477Z,468.00
2019-03-29T17:41:41.462Z,444.00
2019-03-29T17:42:41.450Z,420.00
2019-03-29T17:43:41.439Z,400.00
2019-03-29T17:44:41.436Z,380.00
2019-03-29T17:45:41.420Z,360.00
2019-03-29T17:46:41.408Z,340.00
2019-03-29T17:47:41.397Z,320.00
2019-03-29T17:48:41.389Z,304.00
2019-03-29T17:49:41.381Z,280.00
2019-03-29T17:50:41.364Z,264.00
2019-03-29T17:51:41.350Z,244.00
2019-03-29T17:52:41.341Z,228.00
2019-03-29T17:53:41.330Z,208.00
2019-03-29T17:54:41.324Z,188.00
2019-03-29T17:55:41.307Z,176.00
2019-03-29T17:56:41.292Z,160.00
2019-03-29T17:57:41.284Z,144.00
2019-03-29T17:58:41.271Z,136.00
2019-03-29T17:59:41.270Z,124.00
2019-03-29T18:00:41.297Z,108.00
2019-03-29T18:01:41.237Z,96.00
2019-03-29T18:02:41.231Z,88.00
2019-03-29T18:03:41.215Z,80.00
2019-03-29T18:04:41.214Z,68.00
2019-03-29T18:05:41.193Z,60.00
2019-03-29T18:06:41.181Z,52.00
2019-03-29T18:07:41.172Z,48.00
2019-03-29T18:08:41.170Z,40.00
2019-03-29T18:09:41.182Z,36.00
2019-03-29T18:10:41.138Z,32.00
2019-03-29T18:11:41.127Z,28.00
2019-03-29T18:12:41.114Z,24.00
2019-03-29T18:13:41.126Z,20.00
2019-03-29T18:14:41.092Z,16.00
2019-03-29T18:15:41.093Z,16.00
2019-03-29T18:16:41.074Z,12.00
2019-03-29T18:17:41.067Z,12.00
2019-03-29T18:18:41.063Z,8.00
2019-03-29T18:19:41.039Z,8.00
2019-03-29T18:20:41.049Z,8.00
2019-03-29T18:21:41.018Z,8.00
2019-03-29T18:22:41.013Z,4.00
2019-03-29T18:23:40.994Z,4.00
2019-03-29T18:24:40.984Z,4.00
2019-03-29T18:25:40.979Z,4.00
2019-03-29T18:26:40.969Z,0.00
2019-03-29T18:27:40.951Z,4.00
2019-03-29T18:28:40.936Z,4.00
2019-03-29T18:29:40.926Z,0.00
2019-03-29T18:30:40.933Z,0.00
2019-03-29T18:31:40.942Z,0.00
2019-03-29T18:32:40.893Z,0.00
2019-03-29T18:33:40.890Z,0.00
2019-03-29T18:34:41.708Z,0.00
2019-03-29T18:35:40.868Z,0.00
2019-03-29T18:36:40.875Z,0.00
2019-03-29T18:37:40.840Z,0.00
2019-03-29T18:38:40.828Z,0.00
2019-03-29T18:39:40.817Z,0.00
2019-03-29T18:40:40.821Z,0.00
2019-03-29T18:41:40.794Z,0.00
2019-03-29T18:42:40.783Z,0.00
2019-03-29T18:43:40.772Z,0.00
2019-03-29T18:44:40.758Z,0.00
2019-03-29T18:45:41.799Z,0.00
2019-03-29T18:46:44.907Z,0.00
2019-03-29T18:47:40.727Z,0.00
2019-03-29T18:48:40.717Z,0.00
2019-03-29T18:49:40.706Z,0.00
2019-03-29T18:50:40.750Z,0.00
2019-03-29T18:51:40.687Z,0.00
2019-03-29T18:52:42.808Z,0.00
2019-03-29T18:53:40.701Z,0.00
2019-03-29T18:54:40.714Z,0.00
2019-03-29T18:55:40.827Z,0.00
2019-03-29T18:56:40.623Z,0.00
2019-03-29T18:57:40.619Z,0.00
2019-03-29T18:58:40.613Z,0.00
2019-03-29T18:59:40.678Z,0.00
2019-03-29T19:00:40.583Z,0.00
2019-03-29T19:01:40.577Z,0.00
2019-03-29T19:02:40.560Z,0.00
2019-03-29T19:03:40.550Z,0.00
2019-03-29T19:04:40.538Z,0.00
2019-03-29T19:05:40.527Z,0.00
2019-03-29T19:06:40.524Z,0.00
2019-03-29T19:07:40.502Z,0.00
2019-03-29T19:08:40.533Z,0.00
2019-03-29T19:09:40.489Z,0.00
2019-03-29T19:10:40.553Z,0.00
2019-03-29T19:11:40.466Z,0.00
2019-03-29T19:12:40.447Z,0.00
2019-03-29T19:13:40.436Z,0.00
2019-03-29T19:14:41.759Z,0.00
2019-03-29T19:15:40.420Z,0.00
2019-03-29T19:16:40.413Z,0.00
2019-03-29T19:17:40.394Z,0.00
2019-03-29T19:18:40.378Z,0.00
2019-03-29T19:19:40.371Z,0.00
2019-03-29T19:20:40.359Z,0.00
2019-03-29T19:21:40.355Z,0.00
2019-03-29T19:22:40.337Z,0.00
2019-03-29T19:23:40.325Z,0.00
2019-03-29T19:24:40.311Z,0.00
2019-03-29T19:25:40.302Z,0.00
2019-03-29T19:26:40.299Z,0.00
2019-03-29T19:27:40.286Z,0.00
2019-03-29T19:28:40.283Z,0.00
2019-03-29T19:29:40.258Z,0.00
2019-03-29T19:30:40.320Z,0.00
2019-03-29T19:31:40.346Z,0.00
2019-03-29T19:32:40.281Z,0.00
2019-03-29T19:33:40.226Z,0.00
2019-03-29T19:34:40.223Z,0.00
2019-03-29T19:35:40.195Z,0.00
2019-03-29T19:36:40.213Z,0.00
2019-03-29T19:37:40.169Z,0.00
2019-03-29T19:38:40.158Z,0.00
2019-03-29T19:39:40.159Z,0.00
2019-03-29T19:40:40.233Z,0.00
2019-03-29T19:41:40.132Z,0.00
2019-03-29T19:42:40.119Z,0.00
2019-03-29T19:43:40.114Z,0.00
2019-03-29T19:44:40.133Z,0.00
2019-03-29T19:45:40.089Z,0.00
2019-03-29T19:46:40.081Z,0.00
2019-03-29T19:47:40.066Z,0.00
2019-03-29T19:48:40.052Z,0.00
2019-03-29T19:49:40.072Z,0.00
2019-03-29T19:50:40.108Z,0.00
2019-03-29T19:51:40.027Z,0.00
2019-03-29T19:52:40.058Z,0.00
2019-03-29T19:53:39.988Z,0.00
2019-03-29T19:54:41.061Z,0.00
2019-03-29T19:55:39.988Z,0.00
2019-03-29T19:56:40.008Z,0.00
2019-03-29T19:57:39.950Z,0.00
2019-03-29T19:58:39.934Z,0.00
2019-03-29T19:59:39.932Z,0.00
2019-03-29T20:00:39.967Z,0.00
2019-03-29T20:01:39.904Z,0.00
2019-03-29T20:02:39.935Z,0.00
2019-03-29T20:03:39.918Z,0.00
2019-03-29T20:04:39.867Z,0.00
2019-03-29T20:05:39.888Z,0.00
2019-03-29T20:06:39.849Z,0.00
2019-03-29T20:07:39.841Z,0.00
2019-03-29T20:08:39.840Z,0.00
2019-03-29T20:09:42.105Z,0.00
2019-03-29T20:10:39.800Z,0.00
2019-03-29T20:11:39.807Z,0.00
2019-03-29T20:12:39.785Z,0.00
2019-03-29T20:13:39.802Z,0.00
2019-03-29T20:14:39.753Z,0.00
2019-03-29T20:15:39.744Z,0.00
2019-03-29T20:16:39.735Z,0.00
2019-03-29T20:17:39.756Z,0.00
2019-03-29T20:18:39.715Z,0.00
2019-03-29T20:19:39.698Z,0.00
2019-03-29T20:20:39.690Z,0.00
2019-03-29T20:21:39.677Z,0.00
2019-03-29T20:22:39.674Z,0.00
2019-03-29T20:23:39.662Z,0.00
2019-03-29T20:24:39.650Z,0.00
2019-03-29T20:25:39.636Z,0.00
2019-03-29T20:26:39.619Z,0.00
2019-03-29T20:27:39.617Z,0.00
2019-03-29T20:28:39.601Z,0.00
2019-03-29T20:29:39.593Z,0.00
2019-03-29T20:30:39.577Z,0.00
2019-03-29T20:31:39.564Z,0.00
2019-03-29T20:32:39.564Z,0.00
2019-03-29T20:33:39.548Z,0.00
2019-03-29T20:34:39.528Z,0.00
2019-03-29T20:35:39.524Z,0.00
2019-03-29T20:36:39.518Z,0.00
2019-03-29T20:37:39.506Z,0.00
2019-03-29T20:38:39.487Z,0.00
2019-03-29T20:39:39.475Z,0.00
2019-03-29T20:40:39.474Z,0.00
2019-03-29T20:41:39.467Z,0.00
2019-03-29T20:42:39.450Z,0.00
2019-03-29T20:43:39.428Z,0.00
2019-03-29T20:44:39.419Z,0.00
2019-03-29T20:45:39.414Z,0.00
2019-03-29T20:46:39.395Z,0.00
2019-03-29T20:47:42.255Z,0.00
2019-03-29T20:48:39.372Z,0.00
2019-03-29T20:49:39.362Z,0.00
2019-03-29T20:50:39.354Z,0.00
2019-03-29T20:51:39.338Z,0.00
2019-03-29T20:52:39.341Z,0.00
2019-03-29T20:53:39.316Z,0.00
2019-03-29T20:54:39.307Z,0.00
2019-03-29T20:55:39.303Z,0.00
2019-03-29T20:56:39.293Z,0.00
2019-03-29T20:57:39.302Z,0.00
2019-03-29T20:58:39.264Z,0.00
2019-03-29T20:59:39.251Z,0.00
2019-03-29T21:00:39.238Z,0.00
2019-03-29T21:01:39.226Z,0.00
2019-03-29T21:02:39.226Z,0.00
2019-03-29T21:03:39.209Z,0.00
2019-03-29T21:04:39.195Z,0.00
2019-03-29T21:05:39.188Z,0.00
2019-03-29T21:06:39.174Z,0.00
2019-03-29T21:07:39.174Z,0.00
2019-03-29T21:08:39.151Z,0.00
2019-03-29T21:09:39.140Z,0.00
2019-03-29T21:10:39.192Z,0.00
2019-03-29T21:11:39.122Z,0.00
2019-03-29T21:12:39.216Z,0.00
2019-03-29T21:13:39.261Z,0.00
2019-03-29T21:14:39.102Z,0.00
2019-03-29T21:15:39.099Z,0.00
2019-03-29T21:16:39.073Z,0.00
2019-03-29T21:17:39.050Z,0.00
2019-03-29T21:18:39.044Z,0.00
2019-03-29T21:19:39.035Z,0.00
2019-03-29T21:20:39.021Z,0.00
2019-03-29T21:21:39.004Z,0.00
2019-03-29T21:22:39.000Z,0.00
2019-03-29T21:23:39.038Z,0.00
2019-03-29T21:24:38.973Z,0.00
2019-03-29T21:25:38.960Z,0.00
2019-03-29T21:26:38.953Z,0.00